Time;durP1;ratioP1;P1;durP2;ratioP2;P2;SDS_P1;SDS_P2;PMS_P1;PMS_P2;Temp;Humidity;BMP_temperature;BMP_pressure;BME280_temperature;BME280_humidity;BME280_pressure;Samples;Min_cycle;Max_cycle;Signal;HPM_P1;HPM_P2
2023/05/20 00:01:12;;;;;;;2.80;2.13;;;21.50;44.50;22.30;101397.00;;;;5028746;28;20198;-49
2023/05/20 00:03:38;;;;;;;2.30;2.10;;;21.50;44.40;22.20;101398.00;;;;5030269;28;20194;-48
2023/05/20 00:06:04;;;;;;;2.50;2.30;;;21.60;44.30;22.20;101396.00;;;;5029315;28;20170;-48
2023/05/20 00:08:30;;;;;;;2.40;2.20;;;21.50;44.30;22.20;101406.00;;;;5029431;28;20190;-50
2023/05/20 00:10:55;;;;;;;2.50;2.30;;;21.50;44.40;22.20;101397.00;;;;5029038;28;20250;-50
2023/05/20 00:13:23;;;;;;;3.20;2.30;;;21.50;44.30;22.20;101400.00;;;;5029088;28;20266;-48
2023/05/20 00:15:48;;;;;;;2.20;2.00;;;21.40;44.20;22.20;101398.00;;;;5028361;28;20265;-49
2023/05/20 00:18:14;;;;;;;3.07;2.50;;;21.40;44.20;22.10;101397.00;;;;5028101;28;20179;-49
2023/05/20 00:20:40;;;;;;;2.50;2.30;;;21.40;44.20;22.10;101398.00;;;;5028728;28;20179;-48
2023/05/20 00:23:05;;;;;;;3.87;2.10;;;21.40;44.10;22.10;101400.00;;;;5028681;28;20213;-50
2023/05/20 00:25:31;;;;;;;2.40;2.20;;;21.40;44.00;22.10;101407.00;;;;5029457;28;20270;-49
2023/05/20 00:27:57;;;;;;;3.20;2.23;;;21.40;44.00;22.10;101402.00;;;;5012970;28;20182;-49
2023/05/20 00:30:23;;;;;;;2.80;2.10;;;21.30;43.90;22.00;101406.00;;;;5031142;28;20178;-50
2023/05/20 00:32:49;;;;;;;2.37;2.17;;;21.40;44.00;22.00;101405.00;;;;5029717;28;20214;-48
2023/05/20 00:35:15;;;;;;;2.20;2.00;;;21.30;44.10;22.00;101397.00;;;;5028697;28;20241;-47
2023/05/20 00:37:42;;;;;;;2.40;2.20;;;21.30;44.00;22.00;101400.00;;;;5028808;28;20210;-50
2023/05/20 00:40:08;;;;;;;2.40;2.20;;;21.30;44.10;21.90;101397.00;;;;5028684;28;20209;-49
2023/05/20 00:42:34;;;;;;;2.40;2.20;;;21.30;44.10;21.90;101400.00;;;;5028813;28;20231;-48
2023/05/20 00:44:59;;;;;;;2.30;2.10;;;21.30;44.20;21.90;101378.00;;;;5028746;28;20266;-49
2023/05/20 00:47:30;;;;;;;2.27;2.07;;;21.30;44.20;21.90;101397.00;;;;5028346;28;20185;-50
2023/05/20 00:49:56;;;;;;;2.40;2.20;;;21.30;44.30;21.90;101406.00;;;;4978653;28;20190;-49
2023/05/20 00:52:22;;;;;;;2.27;2.07;;;21.20;44.30;21.90;101384.00;;;;5028289;28;20205;-47
2023/05/20 00:54:48;;;;;;;2.17;2.00;;;21.20;44.20;21.80;101395.00;;;;5028399;28;20234;-49
2023/05/20 00:57:14;;;;;;;2.33;2.13;;;21.20;44.30;21.80;101381.00;;;;5011218;28;20182;-49
2023/05/20 00:59:39;;;;;;;2.60;2.10;;;21.20;44.30;21.80;101381.00;;;;5011075;28;20672;-48
2023/05/20 01:02:05;;;;;;;2.30;2.10;;;21.20;44.30;21.80;101375.00;;;;5032411;28;20206;-50
2023/05/20 01:04:31;;;;;;;2.40;2.20;;;21.10;44.20;21.80;101384.00;;;;5033690;28;20769;-50
2023/05/20 01:06:58;;;;;;;2.50;2.20;;;21.10;44.20;21.80;101373.00;;;;5031263;28;20205;-49
2023/05/20 01:09:24;;;;;;;2.30;2.10;;;21.10;44.30;21.70;101374.00;;;;5011725;28;20198;-50
2023/05/20 01:11:58;;;;;;;2.20;2.00;;;21.10;44.20;21.70;101367.00;;;;5011348;28;20345;-49
2023/05/20 01:14:25;;;;;;;2.10;1.90;;;21.10;44.20;21.70;101372.00;;;;4996590;28;20692;-50
2023/05/20 01:16:52;;;;;;;2.37;2.10;;;21.10;44.40;21.70;101366.00;;;;4994676;28;20171;-50
2023/05/20 01:19:44;;;;;;;2.80;2.50;;;21.10;44.20;21.70;101369.00;;;;4994718;28;20645;-48
2023/05/20 01:22:12;;;;;;;2.93;2.30;;;21.00;44.10;21.60;101366.00;;;;4997591;28;20236;-49
2023/05/20 01:24:47;;;;;;;2.13;1.93;;;21.00;44.10;21.60;101365.00;;;;5028232;28;20186;-50
2023/05/20 01:27:13;;;;;;;2.27;2.00;;;21.00;44.10;21.60;101369.00;;;;5028682;28;20182;-49
2023/05/20 01:29:39;;;;;;;2.30;2.20;;;21.00;44.20;21.60;101367.00;;;;5031878;28;20720;-48
2023/05/20 01:32:12;;;;;;;2.20;2.00;;;21.00;44.20;21.50;101371.00;;;;5031776;28;20705;-50
2023/05/20 01:34:38;;;;;;;3.20;2.20;;;21.00;44.30;21.50;101367.00;;;;4998319;28;20212;-49
2023/05/20 01:37:04;;;;;;;2.40;2.20;;;20.90;44.10;21.50;101360.00;;;;5032000;28;20178;-49
2023/05/20 01:39:31;;;;;;;2.77;2.27;;;21.00;44.30;21.50;101360.00;;;;5014320;28;20175;-48
2023/05/20 01:41:56;;;;;;;2.30;2.10;;;20.90;44.40;21.40;101364.00;;;;5006115;28;20198;-49
2023/05/20 01:44:22;;;;;;;2.30;2.10;;;20.90;44.30;21.40;101361.00;;;;5034142;28;20179;-48
2023/05/20 01:46:49;;;;;;;2.20;2.00;;;20.90;44.30;21.40;101364.00;;;;5016820;28;20201;-49
2023/05/20 01:49:15;;;;;;;2.37;2.17;;;20.90;44.30;21.40;101361.00;;;;5033300;28;20669;-48
2023/05/20 01:51:40;;;;;;;2.77;2.33;;;20.90;44.20;21.40;101347.00;;;;5032760;28;20203;-48
2023/05/20 01:54:06;;;;;;;2.37;2.17;;;20.80;44.10;21.30;101350.00;;;;5031939;28;20270;-50
2023/05/20 01:56:32;;;;;;;2.20;2.00;;;20.80;44.10;21.30;101350.00;;;;5033326;28;20501;-49
2023/05/20 01:58:57;;;;;;;2.40;2.20;;;20.80;44.20;21.30;101351.00;;;;5041088;28;20197;-49
2023/05/20 02:01:23;;;;;;;2.57;2.17;;;20.80;44.30;21.30;101342.00;;;;5045528;28;20202;-49
2023/05/20 02:03:49;;;;;;;2.43;2.27;;;20.70;44.20;21.30;101342.00;;;;5034261;28;20284;-49
2023/05/20 02:06:15;;;;;;;2.37;2.17;;;20.70;44.30;21.30;101347.00;;;;5032103;28;20175;-49
2023/05/20 02:08:40;;;;;;;2.50;2.30;;;20.70;44.30;21.30;101344.00;;;;5031792;28;20694;-48
2023/05/20 02:11:06;;;;;;;2.40;2.20;;;20.70;44.30;21.30;101343.00;;;;5031947;28;20179;-49
2023/05/20 02:13:32;;;;;;;2.40;2.20;;;20.70;44.50;21.20;101341.00;;;;5031592;28;20653;-49
2023/05/20 02:15:57;;;;;;;2.33;2.13;;;20.70;44.60;21.20;101343.00;;;;5031420;28;20217;-48
2023/05/20 02:18:25;;;;;;;2.60;2.40;;;20.60;44.50;21.20;101341.00;;;;5031687;28;20175;-48
2023/05/20 02:20:51;;;;;;;4.07;2.37;;;20.60;44.70;21.20;101342.00;;;;5031505;28;20333;-47
2023/05/20 02:23:17;;;;;;;2.30;2.10;;;20.70;44.70;21.20;101345.00;;;;5031179;28;20194;-47
2023/05/20 02:25:43;;;;;;;2.40;2.20;;;20.60;44.70;21.20;101350.00;;;;5031036;28;20187;-49
2023/05/20 02:28:09;;;;;;;2.40;2.20;;;20.60;44.80;21.20;101359.00;;;;5030813;28;20190;-49
2023/05/20 02:30:38;;;;;;;2.40;2.20;;;20.60;44.80;21.20;101358.00;;;;5030958;28;20176;-48
2023/05/20 02:33:04;;;;;;;2.30;2.10;;;20.60;44.90;21.20;101341.00;;;;5030661;28;20345;-48
2023/05/20 02:35:30;;;;;;;2.30;2.10;;;20.60;45.10;21.20;101349.00;;;;5030697;28;20214;-49
2023/05/20 02:37:56;;;;;;;3.73;2.33;;;20.60;45.10;21.10;101347.00;;;;5030620;28;20182;-48
2023/05/20 02:40:21;;;;;;;2.27;2.07;;;20.60;45.00;21.10;101344.00;;;;5030050;28;20220;-48
2023/05/20 02:42:47;;;;;;;2.40;2.20;;;20.60;45.10;21.10;101343.00;;;;5030469;28;20566;-49
2023/05/20 02:45:13;;;;;;;2.67;2.47;;;20.60;45.00;21.10;101335.00;;;;5030632;28;20190;-46
2023/05/20 02:47:39;;;;;;;3.17;2.47;;;20.50;44.80;21.00;101351.00;;;;5030506;28;20195;-50
2023/05/20 02:50:05;;;;;;;2.70;2.30;;;20.50;44.90;21.00;101336.00;;;;5012888;28;20216;-49
2023/05/20 02:52:31;;;;;;;2.53;2.20;;;20.50;45.10;21.00;101341.00;;;;5030506;28;20288;-49
2023/05/20 02:54:57;;;;;;;2.47;2.20;;;20.50;45.10;21.00;101331.00;;;;5030729;28;20681;-49
2023/05/20 02:57:23;;;;;;;2.53;2.30;;;20.50;45.00;21.00;101333.00;;;;5029915;28;20182;-49
2023/05/20 02:59:48;;;;;;;2.83;2.40;;;20.50;45.10;21.00;101325.00;;;;5030401;28;20175;-50
2023/05/20 03:02:14;;;;;;;3.33;2.43;;;20.50;45.10;21.00;101319.00;;;;5030168;28;20206;-48
2023/05/20 03:04:40;;;;;;;2.50;2.30;;;20.40;45.00;20.90;101310.00;;;;5030015;28;20201;-48
2023/05/20 03:07:08;;;;;;;2.40;2.20;;;20.40;44.90;20.90;101254.00;;;;5030262;28;20684;-48
2023/05/20 03:09:34;;;;;;;2.57;2.37;;;20.40;45.00;20.90;101323.00;;;;5022450;28;20211;-49
2023/05/20 03:12:00;;;;;;;2.80;2.57;;;20.40;45.10;20.80;101317.00;;;;5029751;28;20195;-48
2023/05/20 03:14:26;;;;;;;2.60;2.40;;;20.40;45.10;20.80;101311.00;;;;5029598;28;20203;-47
2023/05/20 03:16:54;;;;;;;2.70;2.50;;;20.30;45.00;20.70;101302.00;;;;5029865;28;20200;-48
2023/05/20 03:19:20;;;;;;;2.77;2.57;;;20.30;45.00;20.70;101301.00;;;;5029535;28;20210;-49
2023/05/20 03:21:46;;;;;;;2.53;2.30;;;20.30;45.20;20.70;101319.00;;;;5029626;28;20223;-49
2023/05/20 03:24:12;;;;;;;4.80;2.70;;;20.30;45.20;20.60;101300.00;;;;5029519;28;20183;-49
2023/05/20 03:26:41;;;;;;;3.20;2.70;;;20.30;45.50;20.60;101303.00;;;;5029760;28;20175;-48
2023/05/20 03:29:08;;;;;;;3.20;2.43;;;20.30;45.50;20.60;101306.00;;;;5028736;28;20764;-47
2023/05/20 03:31:34;;;;;;;2.60;2.40;;;20.20;45.70;20.60;101303.00;;;;5011216;28;20199;-48
2023/05/20 03:34:00;;;;;;;3.17;2.40;;;20.20;45.50;20.60;101306.00;;;;5029150;28;20566;-52
2023/05/20 03:36:25;;;;;;;2.50;2.30;;;20.20;45.50;20.50;101306.00;;;;5024251;28;20258;-48
2023/05/20 03:38:51;;;;;;;2.70;2.50;;;20.20;45.50;20.50;101310.00;;;;5028211;28;20195;-48
2023/05/20 03:41:17;;;;;;;2.97;2.43;;;20.20;46.10;20.50;101299.00;;;;5030560;28;20209;-47
2023/05/20 03:43:43;;;;;;;3.00;2.70;;;20.10;45.40;20.50;101312.00;;;;5048319;28;20179;-49
2023/05/20 03:46:08;;;;;;;3.53;2.67;;;20.20;45.50;20.50;101296.00;;;;5039477;28;20253;-48
2023/05/20 03:48:34;;;;;;;2.67;2.47;;;20.10;45.50;20.40;101306.00;;;;5030627;28;20178;-50
2023/05/20 03:51:00;;;;;;;2.93;2.63;;;20.10;45.50;20.40;101307.00;;;;5029151;28;20179;-48
2023/05/20 03:53:26;;;;;;;3.80;2.50;;;20.10;45.50;20.40;101304.00;;;;5029669;28;20171;-50
2023/05/20 03:55:52;;;;;;;2.50;2.30;;;20.10;45.60;20.40;101307.00;;;;5030191;28;20199;-48
2023/05/20 03:58:19;;;;;;;2.77;2.50;;;20.10;45.70;20.30;101300.00;;;;5042450;28;20179;-49
2023/05/20 04:00:46;;;;;;;2.70;2.50;;;20.10;45.80;20.30;101311.00;;;;5036416;28;20478;-48
2023/05/20 04:03:12;;;;;;;3.23;2.60;;;20.00;45.70;20.30;101310.00;;;;5039261;28;20203;-48
2023/05/20 04:05:37;;;;;;;2.70;2.50;;;20.00;45.70;20.30;101314.00;;;;5043793;28;20306;-48
2023/05/20 04:08:04;;;;;;;4.40;2.50;;;20.00;45.80;20.30;101302.00;;;;5040970;28;20174;-49
2023/05/20 04:10:31;;;;;;;2.47;2.27;;;19.90;45.70;20.20;101311.00;;;;5030413;28;20182;-48
2023/05/20 04:12:57;;;;;;;2.63;2.37;;;19.90;45.90;20.20;101302.00;;;;5029491;28;20194;-48
2023/05/20 04:15:23;;;;;;;4.43;2.40;;;19.80;45.80;20.20;101315.00;;;;5029015;28;20199;-48
2023/05/20 04:17:51;;;;;;;3.73;2.50;;;19.80;46.00;20.20;101312.00;;;;5028455;28;20183;-47
2023/05/20 04:20:17;;;;;;;3.93;2.60;;;19.80;46.10;20.20;101308.00;;;;5028646;28;20211;-48
2023/05/20 04:22:44;;;;;;;3.47;2.60;;;19.80;46.20;20.20;101294.00;;;;5028505;28;20297;-48
2023/05/20 04:25:10;;;;;;;2.87;2.57;;;19.80;46.50;20.20;101298.00;;;;5028047;28;20178;-49
2023/05/20 04:27:36;;;;;;;4.13;2.83;;;19.80;46.70;20.20;101293.00;;;;5028008;28;20709;-48
2023/05/20 04:30:03;;;;;;;3.70;2.50;;;19.70;46.90;20.20;101288.00;;;;5030726;28;21007;-49
2023/05/20 04:32:29;;;;;;;4.17;2.60;;;19.70;47.00;20.20;101293.00;;;;5031510;28;20210;-47
2023/05/20 04:34:56;;;;;;;4.53;2.87;;;19.70;47.20;20.20;101303.00;;;;5031901;28;20268;-48
2023/05/20 04:37:21;;;;;;;9.67;2.87;;;19.70;47.40;20.20;101297.00;;;;5029357;28;20257;-47
2023/05/20 04:39:48;;;;;;;4.97;2.80;;;19.70;47.40;20.20;101287.00;;;;5028276;28;20254;-47
2023/05/20 04:42:17;;;;;;;3.60;2.53;;;19.70;47.40;20.20;101288.00;;;;5021365;28;20194;-49
2023/05/20 04:44:44;;;;;;;2.80;2.60;;;19.60;47.40;20.20;101287.00;;;;5029479;28;20180;-48
2023/05/20 04:47:10;;;;;;;5.20;2.70;;;19.60;47.50;20.20;101283.00;;;;5029218;28;20189;-48
2023/05/20 04:49:37;;;;;;;3.43;2.50;;;19.60;47.40;20.20;101293.00;;;;5028536;28;20171;-47
2023/05/20 04:52:03;;;;;;;4.77;2.50;;;19.60;47.40;20.20;101283.00;;;;5028849;28;20198;-50
2023/05/20 04:54:31;;;;;;;4.87;2.60;;;19.60;47.50;20.10;101288.00;;;;5028820;28;20194;-47
2023/05/20 04:56:57;;;;;;;4.10;2.37;;;19.60;47.60;20.10;101289.00;;;;5011878;28;20244;-48
2023/05/20 04:59:23;;;;;;;2.83;2.47;;;19.60;47.70;20.10;101283.00;;;;5028160;28;20175;-48
2023/05/20 05:01:49;;;;;;;4.40;2.50;;;19.60;47.60;20.10;101300.00;;;;5028521;28;20187;-49
2023/05/20 05:04:15;;;;;;;3.80;2.57;;;19.50;47.60;20.10;101299.00;;;;5033599;28;20178;-49
2023/05/20 05:06:40;;;;;;;4.27;2.43;;;19.60;48.30;20.10;101293.00;;;;5013405;28;20221;-49
2023/05/20 05:09:06;;;;;;;2.47;2.20;;;19.60;47.60;20.10;101288.00;;;;5031242;28;20264;-47
2023/05/20 05:11:32;;;;;;;3.13;2.43;;;19.60;47.60;20.10;101282.00;;;;5033039;28;20265;-50
2023/05/20 05:13:58;;;;;;;3.13;2.40;;;19.50;47.60;20.10;101288.00;;;;5032927;28;20167;-48
2023/05/20 05:16:24;;;;;;;2.40;2.20;;;19.60;47.60;20.10;101293.00;;;;5015230;28;20208;-49
2023/05/20 05:18:50;;;;;;;2.40;2.20;;;19.50;47.60;20.10;101293.00;;;;5031104;28;20179;-48
2023/05/20 05:21:15;;;;;;;3.13;2.30;;;19.60;47.60;20.10;101284.00;;;;4998438;28;20243;-47
2023/05/20 05:23:41;;;;;;;3.07;2.53;;;19.60;47.60;20.10;101282.00;;;;5032425;28;20550;-48
2023/05/20 05:26:07;;;;;;;2.50;2.30;;;19.60;47.60;20.10;101282.00;;;;5032913;28;20589;-48
2023/05/20 05:28:33;;;;;;;3.20;2.60;;;19.60;47.60;20.10;101276.00;;;;5032311;28;20179;-48
2023/05/20 05:31:00;;;;;;;3.40;2.40;;;19.60;47.60;20.10;101276.00;;;;5030699;28;20179;-49
2023/05/20 05:33:26;;;;;;;3.57;2.40;;;19.60;47.70;20.10;101278.00;;;;5032346;28;20182;-48
2023/05/20 05:35:52;;;;;;;2.53;2.33;;;19.60;47.60;20.10;101275.00;;;;5032396;28;20202;-48
2023/05/20 05:38:18;;;;;;;2.37;2.17;;;19.60;47.60;20.10;101277.00;;;;5031612;28;20171;-46
2023/05/20 05:40:44;;;;;;;2.27;2.07;;;19.60;47.60;20.10;101268.00;;;;5032168;28;20174;-47
2023/05/20 05:43:09;;;;;;;2.50;2.30;;;19.60;47.70;20.10;101264.00;;;;5036987;28;20208;-49
2023/05/20 05:45:35;;;;;;;4.13;2.10;;;19.60;47.60;20.10;101247.00;;;;5053388;28;20190;-49
2023/05/20 05:48:01;;;;;;;2.93;2.17;;;19.60;47.70;20.10;101251.00;;;;5035079;28;20167;-48
2023/05/20 05:50:27;;;;;;;2.40;2.20;;;19.60;47.70;20.10;101144.00;;;;5033478;28;20679;-48
2023/05/20 05:52:52;;;;;;;4.43;2.50;;;19.60;47.70;20.10;101251.00;;;;5016642;28;20210;-48
2023/05/20 05:55:18;;;;;;;3.10;2.13;;;19.60;47.70;20.10;101253.00;;;;5016379;28;20226;-47
2023/05/20 05:57:44;;;;;;;2.97;2.20;;;19.60;47.70;20.10;101238.00;;;;5037609;28;20187;-47
2023/05/20 06:00:10;;;;;;;4.40;2.30;;;19.60;47.70;20.10;101246.00;;;;5053024;28;20191;-49
2023/05/20 06:02:36;;;;;;;3.67;2.47;;;19.60;47.70;20.10;101249.00;;;;5034557;28;20681;-49
2023/05/20 06:05:03;;;;;;;3.77;2.10;;;19.60;48.30;20.10;101258.00;;;;5031728;28;20233;-47
2023/05/20 06:07:28;;;;;;;3.90;2.20;;;19.60;47.70;20.10;101251.00;;;;5014351;28;20187;-49
2023/05/20 06:09:54;;;;;;;2.30;2.07;;;19.60;47.80;20.10;101250.00;;;;5032379;28;20187;-47
2023/05/20 06:12:20;;;;;;;2.60;2.30;;;19.60;47.80;20.10;101247.00;;;;5032317;28;20206;-46
2023/05/20 06:14:46;;;;;;;2.57;2.30;;;19.60;47.90;20.10;101250.00;;;;5031147;28;20240;-49
2023/05/20 06:17:12;;;;;;;6.97;2.10;;;19.60;47.90;20.10;101244.00;;;;5014303;28;20187;-48
2023/05/20 06:19:38;;;;;;;2.53;2.10;;;19.50;47.80;20.00;101242.00;;;;5031264;28;20185;-48
2023/05/20 06:22:03;;;;;;;3.47;2.20;;;19.60;48.00;20.00;101240.00;;;;5031663;28;20195;-49
2023/05/20 06:24:29;;;;;;;3.47;2.30;;;19.50;48.00;20.00;101241.00;;;;5031662;28;20179;-47
2023/05/20 06:26:55;;;;;;;2.97;2.07;;;19.60;48.00;20.00;101237.00;;;;5031862;28;20653;-48
2023/05/20 06:29:22;;;;;;;2.73;2.53;;;19.60;48.10;20.00;101238.00;;;;5013731;28;20251;-48
2023/05/20 06:31:48;;;;;;;3.03;2.20;;;19.50;48.00;20.00;101244.00;;;;5031273;28;20195;-49
2023/05/20 06:34:13;;;;;;;2.83;2.13;;;19.50;48.10;20.00;101246.00;;;;5031774;28;20199;-49
2023/05/20 06:36:39;;;;;;;2.30;2.10;;;19.50;48.10;20.00;101246.00;;;;5032164;28;20188;-48
2023/05/20 06:39:10;;;;;;;3.27;2.20;;;19.50;48.10;20.00;101244.00;;;;4996547;28;20182;-49
2023/05/20 06:41:39;;;;;;;2.27;2.07;;;19.60;48.20;20.00;101249.00;;;;5014121;28;20195;-51
2023/05/20 06:44:06;;;;;;;2.60;2.10;;;19.50;48.20;20.00;101246.00;;;;5030777;28;20262;-50
2023/05/20 06:46:31;;;;;;;2.27;2.07;;;19.50;48.20;20.00;101250.00;;;;5013824;28;20604;-48
2023/05/20 06:48:57;;;;;;;2.20;2.00;;;19.50;48.20;20.00;101246.00;;;;5012649;28;20187;-48
2023/05/20 06:51:23;;;;;;;2.17;2.07;;;19.50;48.20;20.00;101243.00;;;;5029995;28;20206;-48
2023/05/20 06:53:48;;;;;;;2.30;2.10;;;19.50;48.30;20.00;101243.00;;;;5030610;28;20669;-50
2023/05/20 06:56:14;;;;;;;2.37;2.17;;;19.50;48.30;20.00;101244.00;;;;5023704;28;20199;-48
2023/05/20 06:58:40;;;;;;;2.50;2.30;;;19.50;48.40;20.00;101241.00;;;;5031352;28;20685;-47
2023/05/20 07:01:06;;;;;;;2.53;2.17;;;19.50;48.50;20.10;101244.00;;;;5034780;28;20265;-47
2023/05/20 07:03:31;;;;;;;5.67;2.30;;;19.50;48.60;20.10;101243.00;;;;5031488;28;20183;-47
2023/05/20 07:05:57;;;;;;;2.17;1.97;;;19.50;48.80;20.10;101233.00;;;;5032797;28;20629;-49
2023/05/20 07:08:23;;;;;;;3.70;2.30;;;19.60;49.00;20.10;101237.00;;;;5034862;28;20179;-48
2023/05/20 07:10:49;;;;;;;2.73;2.13;;;19.50;49.30;20.10;101225.00;;;;5034199;28;20274;-48
2023/05/20 07:13:15;;;;;;;4.03;2.50;;;19.50;49.20;20.10;101227.00;;;;5033887;28;20194;-47
2023/05/20 07:15:41;;;;;;;2.43;2.20;;;19.50;49.70;20.10;101227.00;;;;5030845;28;20593;-49
2023/05/20 07:18:06;;;;;;;2.50;2.27;;;19.50;49.80;20.10;101226.00;;;;5029664;28;20190;-48
2023/05/20 07:20:32;;;;;;;3.60;2.50;;;19.50;49.80;20.10;101226.00;;;;5030838;28;20183;-48
2023/05/20 07:22:58;;;;;;;2.90;2.43;;;19.50;49.80;20.10;101218.00;;;;5030667;28;20198;-47
2023/05/20 07:25:24;;;;;;;3.13;2.20;;;19.50;49.80;20.10;101223.00;;;;5030671;28;20266;-48
2023/05/20 07:27:49;;;;;;;3.20;2.20;;;19.50;49.80;20.10;101218.00;;;;5030980;28;20589;-46
2023/05/20 07:30:15;;;;;;;2.40;2.20;;;19.50;49.80;20.10;101221.00;;;;5030462;28;20179;-47
2023/05/20 07:32:41;;;;;;;3.23;2.43;;;19.50;49.80;20.10;101215.00;;;;5030709;28;20207;-48
2023/05/20 07:35:08;;;;;;;2.93;2.30;;;19.50;49.80;20.10;101220.00;;;;5030319;28;20208;-48
2023/05/20 07:37:33;;;;;;;3.63;2.40;;;19.50;49.80;20.20;101213.00;;;;5030170;28;20180;-47
2023/05/20 07:39:59;;;;;;;2.40;2.20;;;19.50;49.80;20.20;101211.00;;;;5030274;28;20179;-48
2023/05/20 07:42:25;;;;;;;2.47;2.27;;;19.50;49.80;20.20;101216.00;;;;5030691;28;20673;-47
2023/05/20 07:44:50;;;;;;;2.60;2.20;;;19.50;49.80;20.20;101230.00;;;;5033408;28;20182;-48
2023/05/20 07:47:16;;;;;;;2.40;2.20;;;19.50;49.80;20.20;101217.00;;;;5046997;28;20178;-48
2023/05/20 07:49:43;;;;;;;2.60;2.40;;;19.50;49.80;20.20;101226.00;;;;5015053;28;20240;-49
2023/05/20 07:52:08;;;;;;;3.03;2.27;;;19.50;49.80;20.20;101222.00;;;;5032647;28;20203;-48
2023/05/20 07:54:35;;;;;;;2.57;2.37;;;19.50;49.80;20.20;101217.00;;;;5031744;28;20190;-47
2023/05/20 07:57:01;;;;;;;2.30;2.10;;;19.50;49.80;20.20;101219.00;;;;5032918;28;20167;-46
2023/05/20 07:59:26;;;;;;;2.63;2.20;;;19.50;49.80;20.20;101224.00;;;;5037749;28;20170;-47
2023/05/20 08:01:53;;;;;;;2.50;2.30;;;19.50;49.80;20.20;101221.00;;;;5047822;28;20241;-48
2023/05/20 08:04:18;;;;;;;2.93;2.20;;;19.50;49.80;20.20;101228.00;;;;5032004;28;20168;-49
2023/05/20 08:06:44;;;;;;;2.63;2.10;;;19.50;49.80;20.20;101225.00;;;;5030773;28;20893;-50
2023/05/20 08:09:10;;;;;;;2.40;2.20;;;19.50;49.80;20.20;101227.00;;;;5030422;28;20202;-49
2023/05/20 08:11:36;;;;;;;2.10;2.00;;;19.50;49.80;20.20;101229.00;;;;5030511;28;20286;-47
2023/05/20 08:14:02;;;;;;;2.27;2.07;;;19.50;49.80;20.20;101223.00;;;;5030028;28;20187;-48
2023/05/20 08:16:27;;;;;;;3.07;2.30;;;19.50;49.80;20.20;101226.00;;;;5029909;28;20217;-48
2023/05/20 08:18:53;;;;;;;2.50;2.30;;;19.40;49.70;20.20;101226.00;;;;5029527;28;20237;-48
2023/05/20 08:21:19;;;;;;;3.10;2.27;;;19.50;49.90;20.20;101219.00;;;;5029886;28;20326;-49
2023/05/20 08:23:45;;;;;;;2.50;2.30;;;19.50;50.00;20.20;101221.00;;;;5029928;28;20168;-49
2023/05/20 08:26:10;;;;;;;2.77;2.17;;;19.50;50.00;20.30;101219.00;;;;5030169;28;20175;-47
2023/05/20 08:28:36;;;;;;;4.23;2.20;;;19.50;50.10;20.30;101225.00;;;;5029911;28;20527;-47
2023/05/20 08:31:02;;;;;;;3.37;2.27;;;19.50;50.40;20.20;101229.00;;;;5029702;28;20726;-49
2023/05/20 08:33:28;;;;;;;2.93;2.20;;;19.50;51.20;20.20;101220.00;;;;5029615;28;20206;-50
2023/05/20 08:35:54;;;;;;;2.60;2.40;;;19.50;50.70;20.30;101230.00;;;;5029569;28;20708;-49
2023/05/20 08:38:19;;;;;;;3.13;2.27;;;19.50;50.70;20.30;101217.00;;;;5028623;28;20171;-49
2023/05/20 08:40:50;;;;;;;3.37;2.30;;;19.50;50.60;20.30;101230.00;;;;5029741;28;20167;-48
2023/05/20 08:43:15;;;;;;;3.10;2.10;;;19.50;50.70;20.30;101230.00;;;;5013046;28;20210;-48
2023/05/20 08:45:41;;;;;;;3.20;2.30;;;19.50;50.60;20.30;101225.00;;;;5018461;28;20250;-49
2023/05/20 08:48:07;;;;;;;8.37;2.40;;;19.50;50.70;20.30;101208.00;;;;5008815;28;20306;-49
2023/05/20 08:50:33;;;;;;;4.00;2.40;;;19.50;50.60;20.30;101228.00;;;;4994548;28;20215;-49
2023/05/20 08:52:58;;;;;;;3.60;2.20;;;19.50;50.70;20.30;101219.00;;;;5027765;28;20191;-51
2023/05/20 08:55:39;;;;;;;2.67;2.13;;;19.50;50.60;20.30;101221.00;;;;5029548;28;20277;-49
2023/05/20 08:58:04;;;;;;;5.77;2.40;;;19.50;50.60;20.30;101218.00;;;;5027406;28;20186;-50
2023/05/20 09:00:30;;;;;;;5.57;2.40;;;19.50;50.60;20.30;101216.00;;;;5028114;28;20262;-51
2023/05/20 09:02:59;;;;;;;2.73;2.27;;;19.60;50.60;20.40;101224.00;;;;5028748;28;20190;-49
2023/05/20 09:05:26;;;;;;;3.57;2.20;;;19.50;50.60;20.40;101216.00;;;;5029526;28;20267;-51
2023/05/20 09:07:51;;;;;;;5.67;2.50;;;19.50;50.60;20.40;101221.00;;;;5029542;28;20185;-49
2023/05/20 09:10:18;;;;;;;3.07;2.40;;;19.60;50.70;20.40;101218.00;;;;5029527;28;20175;-49
2023/05/20 09:12:44;;;;;;;5.20;2.40;;;19.50;50.70;20.40;101210.00;;;;5029174;28;20198;-50
2023/05/20 09:15:10;;;;;;;3.53;2.40;;;19.60;50.70;20.40;101217.00;;;;5029126;28;20187;-49
2023/05/20 09:17:36;;;;;;;3.27;2.37;;;19.50;50.70;20.40;101218.00;;;;5029491;28;20393;-48
2023/05/20 09:20:09;;;;;;;3.63;2.20;;;19.60;50.80;20.40;101220.00;;;;5029612;28;20199;-48
2023/05/20 09:22:35;;;;;;;4.90;2.43;;;19.50;50.80;20.40;101216.00;;;;5029608;28;20277;-49
2023/05/20 09:25:01;;;;;;;3.73;2.20;;;19.60;50.80;20.40;101220.00;;;;5029398;28;20640;-49
2023/05/20 09:27:27;;;;;;;2.73;2.23;;;19.60;50.80;20.50;101217.00;;;;5029533;28;20171;-49
2023/05/20 09:29:52;;;;;;;4.33;2.23;;;19.60;50.80;20.50;101222.00;;;;5029164;28;20211;-50
2023/05/20 09:32:22;;;;;;;2.60;2.40;;;19.60;50.80;20.50;101229.00;;;;5023956;28;20214;-49
2023/05/20 09:34:48;;;;;;;2.50;2.30;;;19.60;50.80;20.50;101228.00;;;;5032081;28;20230;-49
2023/05/20 09:37:17;;;;;;;2.60;2.40;;;19.60;50.80;20.50;101212.00;;;;5027300;28;20175;-49
2023/05/20 09:39:55;;;;;;;2.30;2.10;;;19.60;50.80;20.50;101216.00;;;;4995720;28;20172;-51
2023/05/20 09:42:25;;;;;;;2.40;2.20;;;19.60;50.80;20.50;101207.00;;;;5028560;28;20186;-49
2023/05/20 09:44:52;;;;;;;2.30;2.10;;;19.60;50.90;20.50;101205.00;;;;5003169;28;20226;-49
2023/05/20 09:47:18;;;;;;;2.50;2.30;;;19.60;50.90;20.50;101211.00;;;;5010676;28;20194;-50
2023/05/20 09:49:46;;;;;;;2.43;2.00;;;19.60;50.90;20.50;101210.00;;;;5062586;28;20178;-48
2023/05/20 09:52:14;;;;;;;2.57;2.20;;;19.60;50.90;20.50;101190.00;;;;5053459;28;20202;-49
2023/05/20 09:54:40;;;;;;;3.40;2.13;;;19.60;51.00;20.60;101213.00;;;;5035067;28;20260;-50
2023/05/20 09:57:06;;;;;;;2.30;2.00;;;19.60;51.00;20.60;101203.00;;;;5035765;28;20267;-48
2023/05/20 09:59:32;;;;;;;2.67;2.30;;;19.60;51.00;20.60;101198.00;;;;5053647;28;20207;-49
2023/05/20 10:01:58;;;;;;;2.47;2.10;;;19.70;51.10;20.60;101208.00;;;;5013694;28;20194;-50
2023/05/20 10:04:24;;;;;;;2.20;2.00;;;19.70;51.20;20.60;101200.00;;;;5030451;28;20258;-49
2023/05/20 10:07:42;;;;;;;2.30;2.10;;;19.60;51.10;20.60;101207.00;;;;5007780;28;20178;-49
2023/05/20 10:10:40;;;;;;;2.50;2.30;;;19.70;51.20;20.60;101201.00;;;;5051169;28;20293;-50
2023/05/20 10:13:17;;;;;;;2.37;2.17;;;19.70;51.30;20.50;101208.00;;;;5048186;28;20238;-50
2023/05/20 10:16:05;;;;;;;2.60;2.10;;;19.60;51.30;20.60;101204.00;;;;5053307;28;20211;-50
2023/05/20 10:19:26;;;;;;;2.40;1.97;;;19.70;51.40;20.60;101207.00;;;;5052449;28;20180;-48
2023/05/20 10:22:00;;;;;;;2.13;2.00;;;19.60;51.30;20.60;101213.00;;;;5037826;28;20207;-50
2023/05/20 10:24:34;;;;;;;2.50;2.27;;;19.70;51.50;20.60;101208.00;;;;5034898;28;20196;-50
2023/05/20 10:27:06;;;;;;;2.27;2.10;;;19.70;51.50;20.60;101208.00;;;;5052134;28;20189;-49
2023/05/20 10:29:50;;;;;;;2.40;2.20;;;19.70;51.60;20.60;101210.00;;;;5052295;28;20190;-50
2023/05/20 10:32:30;;;;;;;3.40;2.30;;;19.70;51.60;20.60;101209.00;;;;5033762;28;20306;-49
2023/05/20 10:35:00;;;;;;;2.40;2.20;;;19.70;51.60;20.60;101206.00;;;;5051911;28;20201;-50
2023/05/20 10:37:29;;;;;;;2.10;2.00;;;19.70;51.70;20.60;101219.00;;;;5034028;28;20175;-49
2023/05/20 10:40:11;;;;;;;3.13;2.30;;;19.70;51.70;20.70;101215.00;;;;5051871;28;20174;-50
2023/05/20 10:42:37;;;;;;;2.63;2.30;;;19.70;51.80;20.60;101212.00;;;;5033196;28;20202;-48
2023/05/20 10:45:04;;;;;;;2.33;2.13;;;19.70;51.70;20.70;101210.00;;;;5050956;28;20178;-48
2023/05/20 10:47:30;;;;;;;3.13;2.27;;;19.70;51.80;20.70;101207.00;;;;5052369;28;20261;-49